Time;durP1;ratioP1;P1;durP2;ratioP2;P2;SDS_P1;SDS_P2;PMS_P1;PMS_P2;Temp;Humidity;BMP_temperature;BMP_pressure;BME280_temperature;BME280_humidity;BME280_pressure;Samples;Min_cycle;Max_cycle;Signal;HPM_P1;HPM_P2
2023/08/19 00:09:03;;;;;;;8.10;4.10;;;;;;;25.71;56.72;97047.34;5945755;23;20103;-80
2023/08/19 00:16:39;;;;;;;5.35;3.97;;;;;;;25.65;57.55;97049.47;6088556;23;20048;-81
2023/08/19 00:19:05;;;;;;;6.10;4.35;;;;;;;25.63;57.81;97057.06;4983563;28;20045;-81
2023/08/19 00:21:30;;;;;;;4.93;4.18;;;;;;;25.59;58.28;97053.53;4997608;28;20101;-81
2023/08/19 00:23:56;;;;;;;7.05;4.80;;;;;;;25.56;57.61;97057.66;5013658;28;20046;-81
2023/08/19 00:57:23;;;;;;;3.65;3.28;;;;;;;25.03;58.08;97035.78;5978472;23;20027;-83
2023/08/19 00:59:48;;;;;;;3.88;3.47;;;;;;;25.04;58.18;97038.13;5943227;23;20861;-82
2023/08/19 01:02:14;;;;;;;4.72;3.83;;;;;;;24.97;58.17;97037.94;5002361;23;20069;-85
2023/08/19 01:04:39;;;;;;;5.63;3.80;;;;;;;24.96;58.36;97030.28;4968574;28;20031;-77
2023/08/19 01:07:19;;;;;;;5.97;4.07;;;;;;;25.12;58.60;97035.63;4994623;28;20083;-77
2023/08/19 01:09:52;;;;;;;5.88;3.90;;;;;;;25.06;58.05;97035.13;4977654;28;20038;-76
2023/08/19 01:12:22;;;;;;;6.97;4.45;;;;;;;24.94;58.49;97035.19;4958862;28;20038;-78
2023/08/19 01:14:56;;;;;;;4.95;4.22;;;;;;;25.01;58.48;97032.72;4969468;28;20035;-77
2023/08/19 01:17:25;;;;;;;7.28;4.32;;;;;;;24.98;58.81;97023.50;4974540;28;20085;-77
2023/08/19 01:19:51;;;;;;;6.03;3.83;;;;;;;24.73;59.88;97016.75;4943385;28;20053;-76
2023/08/19 01:22:21;;;;;;;6.95;4.45;;;;;;;24.84;59.69;97037.22;4973280;28;21442;-77
2023/08/19 01:24:48;;;;;;;4.75;4.35;;;;;;;24.85;58.69;97036.13;4989459;28;20040;-78
2023/08/19 01:27:26;;;;;;;6.72;5.15;;;;;;;24.82;60.40;97026.13;4989391;28;20038;-76
2023/08/19 01:29:51;;;;;;;5.88;4.22;;;;;;;24.62;60.63;97029.78;4973580;28;20332;-76
2023/08/19 01:32:17;;;;;;;6.55;4.85;;;;;;;24.56;60.37;97033.84;4991170;28;20604;-77
2023/08/19 01:34:43;;;;;;;5.35;4.53;;;;;;;24.41;60.73;97021.97;4974366;28;20045;-76
2023/08/19 01:37:11;;;;;;;5.93;4.60;;;;;;;24.42;61.24;97024.31;4974979;28;20117;-77
2023/08/19 01:39:37;;;;;;;4.53;4.13;;;;;;;24.40;60.95;97031.88;4974804;28;20256;-77
2023/08/19 01:42:03;;;;;;;5.28;4.35;;;;;;;24.37;60.53;97037.84;4989303;28;20046;-76
2023/08/19 01:44:28;;;;;;;5.60;5.10;;;;;;;24.26;61.30;97026.13;4977414;28;20046;-77
2023/08/19 01:46:54;;;;;;;4.93;3.70;;;;;;;24.29;60.75;97036.09;4970632;28;20468;-76
2023/08/19 01:49:19;;;;;;;6.00;3.90;;;;;;;24.27;61.05;97035.66;4974812;28;20508;-77
2023/08/19 01:51:45;;;;;;;4.80;3.90;;;;;;;24.12;61.54;97021.19;4978083;28;20052;-76
2023/08/19 01:54:10;;;;;;;4.68;4.30;;;;;;;24.12;61.24;97029.91;4993290;28;20041;-77
2023/08/19 01:56:36;;;;;;;8.13;4.32;;;;;;;24.18;61.38;97041.13;4980045;28;20039;-77
2023/08/19 01:59:02;;;;;;;5.20;3.88;;;;;;;24.09;61.99;97038.59;4990833;28;20038;-76
2023/08/19 02:01:27;;;;;;;4.82;3.80;;;;;;;24.04;62.36;97044.16;4974626;28;20042;-77
2023/08/19 02:03:52;;;;;;;4.70;4.30;;;;;;;24.03;62.22;97031.94;4972240;28;20041;-77
2023/08/19 02:06:18;;;;;;;4.68;4.07;;;;;;;23.99;62.03;97035.59;4976338;28;20053;-77
2023/08/19 02:08:43;;;;;;;8.32;3.88;;;;;;;24.03;61.98;97044.47;4969253;28;20031;-77
2023/08/19 02:11:09;;;;;;;7.05;4.32;;;;;;;23.97;61.53;97033.28;4977624;28;20030;-77
2023/08/19 02:13:34;;;;;;;5.60;3.50;;;;;;;23.98;61.31;97036.72;4989835;28;20038;-77
2023/08/19 02:15:59;;;;;;;5.78;4.25;;;;;;;23.94;61.26;97036.63;4974946;28;20022;-77
2023/08/19 02:18:26;;;;;;;5.28;4.03;;;;;;;24.00;61.66;97056.56;4966310;28;20045;-76
2023/08/19 02:20:51;;;;;;;4.60;3.92;;;;;;;23.93;61.44;97046.47;4990356;28;20034;-77
2023/08/19 02:23:16;;;;;;;6.13;4.05;;;;;;;23.93;61.62;97043.81;4968578;28;20034;-77
2023/08/19 02:25:42;;;;;;;6.93;4.97;;;;;;;23.90;61.30;97033.84;4994085;28;20066;-77
2023/08/19 02:28:07;;;;;;;5.00;4.20;;;;;;;23.96;62.03;97044.25;4994627;28;20097;-77
2023/08/19 02:30:33;;;;;;;6.15;4.50;;;;;;;23.86;61.99;97032.22;4965383;28;20533;-78
2023/08/19 02:33:07;;;;;;;5.07;4.05;;;;;;;23.96;61.66;97038.94;4982167;28;20106;-77
2023/08/19 02:35:32;;;;;;;5.45;4.45;;;;;;;23.92;61.92;97050.25;4970557;28;20034;-77
2023/08/19 02:37:57;;;;;;;5.97;4.00;;;;;;;23.94;61.55;97047.28;4985941;28;20460;-77
2023/08/19 02:40:23;;;;;;;4.55;4.07;;;;;;;23.93;62.18;97045.72;4958427;28;20038;-77
2023/08/19 02:42:48;;;;;;;7.05;4.97;;;;;;;23.93;61.89;97046.47;4982869;28;20124;-77
2023/08/19 02:45:14;;;;;;;5.15;4.43;;;;;;;23.89;62.16;97034.19;4990180;28;20034;-76
2023/08/19 02:47:39;;;;;;;4.78;3.80;;;;;;;23.98;62.33;97048.13;4973963;28;20030;-77
2023/08/19 02:50:05;;;;;;;5.10;3.95;;;;;;;23.95;62.28;97037.41;4990490;28;20046;-78
2023/08/19 02:52:30;;;;;;;5.50;4.50;;;;;;;23.98;62.34;97042.81;4972682;28;20030;-76
2023/08/19 02:54:56;;;;;;;5.63;4.20;;;;;;;24.02;62.60;97035.72;4957956;28;20031;-76
2023/08/19 02:57:21;;;;;;;5.95;4.30;;;;;;;24.04;62.46;97041.50;4958463;28;20392;-77
2023/08/19 02:59:46;;;;;;;7.13;4.47;;;;;;;24.23;61.41;97042.75;4972277;28;20034;-77
2023/08/19 03:02:12;;;;;;;5.10;4.30;;;;;;;24.21;61.42;97037.78;4991964;28;20526;-77
2023/08/19 03:04:37;;;;;;;4.68;4.03;;;;;;;24.20;61.64;97030.16;4974619;28;20457;-77
2023/08/19 03:07:03;;;;;;;5.35;4.00;;;;;;;24.20;61.81;97027.50;4974047;28;20034;-76
2023/08/19 03:09:28;;;;;;;5.85;4.30;;;;;;;24.27;61.83;97038.31;4966319;28;20121;-76
2023/08/19 03:11:53;;;;;;;5.55;4.05;;;;;;;24.17;61.33;97034.25;4992759;28;20355;-77
2023/08/19 03:14:19;;;;;;;5.40;4.60;;;;;;;24.20;62.19;97044.22;4971226;28;20046;-77
2023/08/19 03:16:44;;;;;;;7.10;4.20;;;;;;;24.14;61.61;97044.78;4989833;28;20038;-77
2023/08/19 03:19:10;;;;;;;6.43;4.53;;;;;;;23.95;61.73;97032.84;4977880;28;20552;-77
2023/08/19 03:21:35;;;;;;;4.85;4.35;;;;;;;24.03;62.23;97058.53;4983615;28;20026;-77
2023/08/19 03:24:00;;;;;;;6.72;4.35;;;;;;;24.00;61.79;97050.47;4975429;28;20042;-77
2023/08/19 03:26:26;;;;;;;6.50;4.38;;;;;;;23.98;62.16;97058.78;4975389;28;20772;-77
2023/08/19 03:28:51;;;;;;;5.85;4.60;;;;;;;23.94;62.25;97057.91;4975654;28;20037;-77
2023/08/19 03:31:17;;;;;;;5.38;4.68;;;;;;;23.94;61.94;97057.91;4975756;28;20038;-77
2023/08/19 03:33:42;;;;;;;6.50;5.03;;;;;;;23.99;61.84;97065.66;4975226;28;20085;-76
2023/08/19 03:36:07;;;;;;;6.78;4.32;;;;;;;23.88;62.00;97053.91;4992295;28;20038;-78
2023/08/19 03:38:33;;;;;;;6.25;4.78;;;;;;;23.90;61.33;97057.78;4975499;28;20042;-77
2023/08/19 03:40:58;;;;;;;6.22;4.43;;;;;;;23.91;62.25;97055.91;4976129;28;20034;-76
2023/08/19 03:43:23;;;;;;;5.43;4.25;;;;;;;23.92;62.20;97062.75;4991659;28;20470;-76
2023/08/19 03:45:49;;;;;;;6.65;4.50;;;;;;;23.88;61.89;97053.91;4965257;28;20125;-76
2023/08/19 03:48:14;;;;;;;5.22;4.72;;;;;;;23.80;61.90;97047.56;4992425;28;20045;-76
2023/08/19 03:50:39;;;;;;;7.20;5.00;;;;;;;23.78;61.90;97043.69;4959972;28;20036;-77
2023/08/19 03:53:05;;;;;;;5.82;5.05;;;;;;;23.71;62.51;97038.94;4976154;28;20516;-77
2023/08/19 03:55:31;;;;;;;6.10;4.47;;;;;;;23.66;62.47;97034.63;4976929;28;20069;-78
2023/08/19 03:57:56;;;;;;;7.07;4.75;;;;;;;23.73;62.00;97048.16;4992643;28;20072;-78
2023/08/19 04:00:22;;;;;;;5.63;4.85;;;;;;;23.75;62.13;97053.91;4975834;28;20038;-76
2023/08/19 04:02:47;;;;;;;5.53;4.45;;;;;;;23.71;61.96;97050.34;4958714;28;20501;-76
2023/08/19 04:05:13;;;;;;;4.60;4.22;;;;;;;23.66;62.02;97047.91;4987385;28;20041;-78
2023/08/19 04:07:38;;;;;;;7.03;5.18;;;;;;;23.68;62.10;97045.72;4990482;28;20529;-77
2023/08/19 04:10:04;;;;;;;6.22;4.38;;;;;;;23.71;62.13;97047.69;4976384;28;20149;-76
2023/08/19 04:12:30;;;;;;;5.38;4.25;;;;;;;23.67;62.32;97049.47;4960123;28;20418;-77
2023/08/19 04:14:55;;;;;;;5.57;4.57;;;;;;;23.69;62.54;97046.47;4979398;28;20112;-77
2023/08/19 04:17:21;;;;;;;5.70;4.63;;;;;;;23.67;62.54;97051.34;4992938;28;20038;-77
2023/08/19 04:19:46;;;;;;;6.18;5.03;;;;;;;23.63;62.52;97053.91;4959658;28;20037;-76
2023/08/19 04:22:13;;;;;;;5.05;4.55;;;;;;;23.69;61.90;97057.13;4979038;28;20026;-76
2023/08/19 04:24:39;;;;;;;5.93;4.63;;;;;;;23.69;61.94;97055.22;4994740;28;20219;-76
2023/08/19 04:27:04;;;;;;;5.57;4.50;;;;;;;23.68;61.50;97056.34;4978162;28;20030;-77
2023/08/19 04:29:32;;;;;;;5.38;4.88;;;;;;;23.61;61.87;97053.44;4991871;28;20031;-77
2023/08/19 04:31:59;;;;;;;5.72;4.63;;;;;;;23.58;62.29;97067.41;4984229;28;20120;-76
2023/08/19 04:34:25;;;;;;;5.00;4.25;;;;;;;23.52;62.02;97069.50;4975673;28;20041;-76
2023/08/19 04:36:50;;;;;;;5.38;4.85;;;;;;;23.40;61.87;97050.91;4975930;28;20042;-76
2023/08/19 04:39:16;;;;;;;6.57;4.28;;;;;;;23.46;62.21;97073.50;4970121;28;20374;-76
2023/08/19 04:41:41;;;;;;;5.22;4.43;;;;;;;23.45;62.40;97073.81;4964359;28;20172;-76
2023/08/19 04:44:07;;;;;;;4.97;4.15;;;;;;;23.38;62.71;97061.84;4991530;28;20061;-76
2023/08/19 04:46:32;;;;;;;6.80;4.85;;;;;;;23.29;63.54;97055.88;4991746;28;20044;-77
2023/08/19 04:48:57;;;;;;;7.90;4.95;;;;;;;23.32;62.99;97055.22;4991111;28;20052;-76
2023/08/19 04:51:23;;;;;;;6.03;4.82;;;;;;;23.33;63.48;97059.41;4975453;28;20113;-76
2023/08/19 04:53:48;;;;;;;5.03;3.90;;;;;;;23.46;63.45;97070.03;4990616;28;20505;-77
2023/08/19 04:56:13;;;;;;;5.35;4.60;;;;;;;23.38;63.04;97059.19;4961276;28;20030;-77
2023/08/19 04:58:39;;;;;;;5.72;4.70;;;;;;;23.47;63.07;97074.25;4989823;28;20054;-77
2023/08/19 05:01:04;;;;;;;6.07;4.57;;;;;;;23.48;62.68;97065.97;4975492;28;20034;-77
2023/08/19 05:03:30;;;;;;;4.30;3.95;;;;;;;23.50;63.15;97066.41;4998079;28;20125;-77
2023/08/19 05:05:55;;;;;;;5.20;4.07;;;;;;;23.52;62.88;97064.19;4967916;28;20519;-75
2023/08/19 05:08:21;;;;;;;6.60;4.53;;;;;;;23.45;62.78;97047.25;4961263;28;20030;-76
2023/08/19 05:10:46;;;;;;;5.35;4.30;;;;;;;23.61;62.88;97050.00;5003600;28;20037;-76
2023/08/19 05:13:11;;;;;;;6.60;4.47;;;;;;;23.82;61.94;97071.19;4974955;28;20042;-75
2023/08/19 05:15:38;;;;;;;5.30;4.60;;;;;;;23.81;62.06;97065.09;4979437;28;20157;-78
2023/08/19 05:18:04;;;;;;;5.50;4.63;;;;;;;23.85;61.57;97059.91;4973350;28;20336;-76
2023/08/19 05:20:29;;;;;;;5.97;4.55;;;;;;;23.89;61.58;97076.75;4956836;28;20165;-78
2023/08/19 05:22:55;;;;;;;5.32;4.82;;;;;;;23.97;61.77;97077.72;4983590;28;20117;-84
2023/08/19 05:25:20;;;;;;;5.95;5.22;;;;;;;24.06;61.60;97083.69;4958511;28;20048;-84
2023/08/19 05:27:46;;;;;;;5.70;4.93;;;;;;;24.16;61.55;97082.47;4974672;28;20436;-83
2023/08/19 05:30:11;;;;;;;6.25;4.63;;;;;;;24.15;61.80;97089.69;4965050;28;20497;-84
2023/08/19 05:32:37;;;;;;;4.80;4.30;;;;;;;24.16;62.28;97090.44;4985034;28;20034;-83
2023/08/19 05:35:03;;;;;;;7.38;5.25;;;;;;;24.24;61.67;97092.22;4971354;28;20026;-83
2023/08/19 05:37:28;;;;;;;6.20;5.15;;;;;;;24.31;61.35;97097.72;4987025;28;20042;-83
2023/08/19 05:39:54;;;;;;;6.90;5.28;;;;;;;24.38;61.08;97102.47;4987202;28;20034;-84
2023/08/19 05:42:19;;;;;;;6.35;4.53;;;;;;;24.46;60.63;97107.69;4986135;28;20054;-84
2023/08/19 05:44:45;;;;;;;6.72;5.00;;;;;;;24.43;60.81;97103.03;4942986;28;20030;-76
2023/08/19 05:47:10;;;;;;;5.57;5.07;;;;;;;24.42;60.75;97098.03;4960320;28;20068;-77
2023/08/19 05:49:36;;;;;;;6.53;4.22;;;;;;;24.44;60.90;97101.91;4972966;28;20030;-76
2023/08/19 05:52:01;;;;;;;5.65;5.05;;;;;;;24.60;61.04;97106.56;4998780;28;20061;-76
2023/08/19 05:54:27;;;;;;;5.18;4.68;;;;;;;24.67;60.63;97114.75;4982541;28;20449;-76
2023/08/19 05:56:52;;;;;;;5.60;5.00;;;;;;;24.74;60.46;97114.94;4990165;28;20038;-76
2023/08/19 05:59:18;;;;;;;6.25;4.97;;;;;;;24.84;60.74;97119.00;4974187;28;20150;-77
2023/08/19 06:01:43;;;;;;;5.32;4.63;;;;;;;24.92;60.64;97118.09;4957307;28;20041;-76
2023/08/19 06:04:08;;;;;;;4.90;4.50;;;;;;;25.04;60.32;97123.38;4957764;28;20049;-77
2023/08/19 06:06:34;;;;;;;5.50;4.88;;;;;;;25.11;60.70;97117.44;4989907;28;20565;-77
2023/08/19 06:08:59;;;;;;;5.18;4.68;;;;;;;25.20;60.69;97115.41;4968111;28;20390;-77
2023/08/19 06:11:25;;;;;;;5.85;4.68;;;;;;;25.31;60.89;97114.91;4957970;28;20034;-76
2023/08/19 06:13:50;;;;;;;6.13;5.25;;;;;;;25.44;60.40;97123.63;5002327;28;20077;-76
2023/08/19 06:16:15;;;;;;;7.15;5.32;;;;;;;25.53;60.14;97121.56;4972862;28;20390;-77
2023/08/19 06:18:41;;;;;;;6.65;4.93;;;;;;;25.70;60.40;97126.56;4964473;28;20076;-77
2023/08/19 06:21:06;;;;;;;7.10;5.10;;;;;;;25.69;60.54;97113.59;4967363;28;20190;-78
2023/08/19 06:23:32;;;;;;;7.85;5.10;;;;;;;25.79;60.55;97129.06;4964124;28;20061;-75
2023/08/19 06:25:58;;;;;;;5.75;5.10;;;;;;;25.94;60.92;97130.16;4996453;28;20033;-77
2023/08/19 06:28:23;;;;;;;5.00;4.60;;;;;;;25.96;60.44;97118.06;4975754;28;20037;-77
2023/08/19 06:30:50;;;;;;;5.85;5.25;;;;;;;26.14;60.24;97112.34;4991780;28;20557;-78
2023/08/19 06:33:16;;;;;;;5.13;4.72;;;;;;;26.47;59.39;97127.13;4974961;28;20045;-76
2023/08/19 06:35:48;;;;;;;6.45;5.07;;;;;;;26.79;58.37;97143.09;4986382;28;20057;-77
2023/08/19 06:38:23;;;;;;;5.25;4.75;;;;;;;26.93;57.21;97140.69;4970710;28;20026;-77
2023/08/19 06:41:00;;;;;;;6.13;4.68;;;;;;;27.07;56.97;97156.22;4975732;28;20030;-77
2023/08/19 06:43:26;;;;;;;5.30;4.72;;;;;;;26.93;57.09;97150.59;4985307;28;20411;-78
2023/08/19 06:45:54;;;;;;;5.82;5.28;;;;;;;27.20;57.16;97159.50;4968715;28;20031;-77
2023/08/19 06:48:21;;;;;;;5.72;5.15;;;;;;;27.40;56.65;97165.59;4946660;28;20030;-78
2023/08/19 06:50:47;;;;;;;5.47;4.93;;;;;;;27.62;56.49;97172.09;4995746;28;20034;-78
2023/08/19 06:53:12;;;;;;;5.75;5.15;;;;;;;27.78;55.37;97155.94;4969941;28;20027;-79
2023/08/19 06:55:40;;;;;;;8.75;5.38;;;;;;;28.18;54.55;97163.47;4976316;28;20112;-85
2023/08/19 06:58:08;;;;;;;5.78;5.20;;;;;;;28.35;54.14;97167.53;4975270;28;20030;-86
2023/08/19 07:00:34;;;;;;;5.35;4.85;;;;;;;28.50;54.00;97179.22;4974672;28;20046;-84
2023/08/19 07:03:00;;;;;;;5.20;4.72;;;;;;;28.61;52.71;97174.00;4958009;28;20059;-85
2023/08/19 07:05:29;;;;;;;5.68;5.07;;;;;;;28.66;52.50;97176.38;4984139;28;20042;-86
2023/08/19 07:07:57;;;;;;;5.75;5.25;;;;;;;28.64;52.78;97175.97;4974709;28;20447;-85
2023/08/19 07:10:23;;;;;;;5.95;4.93;;;;;;;28.52;54.08;97171.56;4974498;28;20085;-85
2023/08/19 07:12:48;;;;;;;6.32;5.20;;;;;;;28.55;54.98;97176.25;4974993;28;20362;-85
2023/08/19 07:15:14;;;;;;;6.32;5.30;;;;;;;28.50;55.33;97173.09;4974318;28;20105;-85
2023/08/19 07:17:45;;;;;;;5.53;5.10;;;;;;;28.54;56.26;97171.97;4990193;28;20038;-83
2023/08/19 07:20:31;;;;;;;6.07;5.47;;;;;;;28.61;56.38;97178.59;4960187;28;20041;-85
2023/08/19 07:22:58;;;;;;;6.38;5.32;;;;;;;28.49;55.53;97188.38;4949741;28;20512;-84
2023/08/19 07:25:23;;;;;;;6.20;5.38;;;;;;;28.39;55.17;97183.63;4961814;28;20033;-85
2023/08/19 07:27:49;;;;;;;6.45;5.85;;;;;;;28.49;54.93;97192.97;4977810;28;20068;-85
2023/08/19 07:30:15;;;;;;;5.03;4.55;;;;;;;28.46;55.61;97185.63;4959289;28;20486;-85
2023/08/19 07:32:40;;;;;;;5.72;5.22;;;;;;;28.43;55.62;97187.16;4973738;28;20049;-85
2023/08/19 07:35:06;;;;;;;5.72;5.25;;;;;;;28.49;56.54;97187.59;4992053;28;20054;-85
2023/08/19 07:37:32;;;;;;;6.15;5.55;;;;;;;28.47;57.61;97185.28;4962644;28;20033;-85
2023/08/19 07:39:58;;;;;;;7.72;5.40;;;;;;;28.54;57.58;97193.41;4994262;28;20051;-86
2023/08/19 07:42:24;;;;;;;6.70;5.40;;;;;;;28.57;56.85;97194.63;4959601;28;20030;-86
2023/08/19 07:44:49;;;;;;;7.18;4.90;;;;;;;28.62;57.65;97193.53;4972614;28;20029;-85
2023/08/19 07:47:15;;;;;;;5.53;5.13;;;;;;;28.67;56.80;97195.91;4985288;28;20026;-85
2023/08/19 07:49:43;;;;;;;5.95;5.28;;;;;;;28.71;56.59;97205.53;4971396;28;20041;-85
2023/08/19 07:52:08;;;;;;;5.10;4.65;;;;;;;28.74;56.26;97198.69;4966722;28;20034;-85
2023/08/19 07:54:34;;;;;;;5.18;4.72;;;;;;;28.82;56.38;97202.22;4981050;28;20121;-85
2023/08/19 07:56:59;;;;;;;6.10;5.50;;;;;;;28.85;56.42;97204.94;4958342;28;20122;-86
2023/08/19 07:59:25;;;;;;;6.03;5.53;;;;;;;28.90;56.21;97193.91;4973964;28;20056;-85
2023/08/19 08:01:51;;;;;;;5.68;5.13;;;;;;;28.92;55.89;97190.84;4973242;28;20038;-86
2023/08/19 08:04:16;;;;;;;5.90;4.65;;;;;;;29.02;53.73;97192.88;4989908;28;20038;-85
2023/08/19 08:06:42;;;;;;;6.43;4.72;;;;;;;29.03;53.80;97193.66;4996189;28;20034;-78
2023/08/19 08:09:07;;;;;;;6.00;4.97;;;;;;;29.17;54.35;97201.09;4998128;28;20038;-80
2023/08/19 08:11:33;;;;;;;5.75;5.00;;;;;;;29.24;54.59;97191.25;4957037;28;20034;-78
2023/08/19 08:13:58;;;;;;;5.90;5.40;;;;;;;29.33;54.73;97197.06;4975167;28;20431;-77
2023/08/19 08:16:23;;;;;;;4.97;4.57;;;;;;;29.41;53.36;97207.91;4962743;28;20037;-85
2023/08/19 08:18:49;;;;;;;6.07;5.53;;;;;;;29.54;54.50;97206.47;4962646;28;20041;-85
2023/08/19 08:21:14;;;;;;;8.05;5.55;;;;;;;29.62;53.84;97199.28;4974220;28;20496;-86
2023/08/19 08:23:40;;;;;;;5.95;5.35;;;;;;;29.74;52.64;97206.28;4973132;28;20045;-85
2023/08/19 08:26:06;;;;;;;5.18;4.78;;;;;;;29.91;52.96;97203.00;4969161;28;20034;-86
2023/08/19 08:28:31;;;;;;;5.38;4.90;;;;;;;30.18;50.83;97202.84;4988212;28;20030;-85
2023/08/19 08:30:57;;;;;;;5.18;4.78;;;;;;;30.35;48.56;97199.53;4973519;28;20800;-85
2023/08/19 08:33:22;;;;;;;5.38;4.88;;;;;;;30.43;48.81;97200.31;4972890;28;20114;-86
2023/08/19 08:35:48;;;;;;;5.57;4.97;;;;;;;30.52;47.81;97200.78;4968507;28;20034;-86
2023/08/19 08:38:13;;;;;;;4.90;4.50;;;;;;;30.61;46.49;97203.88;4989340;28;20485;-87
2023/08/19 08:40:39;;;;;;;6.63;4.90;;;;;;;30.69;45.90;97210.09;4957066;28;20027;-85
2023/08/19 08:43:05;;;;;;;5.18;4.70;;;;;;;30.76;47.53;97207.44;4967138;28;20128;-85
2023/08/19 08:45:31;;;;;;;6.63;4.90;;;;;;;30.90;47.99;97208.63;4993068;28;20290;-85
2023/08/19 08:47:57;;;;;;;4.95;4.28;;;;;;;31.04;46.90;97206.03;4976258;28;20576;-86
2023/08/19 08:50:22;;;;;;;6.05;5.00;;;;;;;31.16;46.04;97212.97;4952149;28;20068;-86
2023/08/19 08:52:49;;;;;;;5.07;4.57;;;;;;;31.30;45.33;97215.69;4972421;28;20038;-85
2023/08/19 08:55:15;;;;;;;6.30;4.72;;;;;;;31.27;46.73;97202.25;4958290;28;20038;-86
2023/08/19 08:57:40;;;;;;;5.13;4.72;;;;;;;31.46;45.39;97211.88;4957332;28;20394;-86
2023/08/19 09:00:07;;;;;;;5.30;4.90;;;;;;;31.52;45.87;97211.16;4975412;28;20088;-85
2023/08/19 09:02:33;;;;;;;5.57;5.05;;;;;;;31.54;45.94;97213.47;4972451;28;20026;-85
2023/08/19 09:04:59;;;;;;;5.78;5.25;;;;;;;31.53;46.09;97215.41;4957282;28;20034;-86
2023/08/19 09:07:25;;;;;;;5.38;4.78;;;;;;;31.32;46.51;97209.94;4975762;28;20038;-85
2023/08/19 09:09:52;;;;;;;5.20;4.80;;;;;;;31.23;44.80;97212.25;4961083;28;20042;-86
2023/08/19 09:12:19;;;;;;;5.60;5.03;;;;;;;30.96;45.80;97213.28;4972307;28;20038;-83
2023/08/19 09:14:45;;;;;;;5.10;4.70;;;;;;;30.80;45.59;97218.19;4988727;28;20291;-86
2023/08/19 09:17:14;;;;;;;6.65;5.38;;;;;;;30.65;47.10;97219.25;4972504;28;20505;-85
2023/08/19 09:19:40;;;;;;;5.90;5.30;;;;;;;30.63;46.91;97222.31;4954833;28;20058;-85
2023/08/19 09:22:23;;;;;;;6.20;4.80;;;;;;;30.65;46.19;97228.09;4970624;28;20061;-88
2023/08/19 09:24:49;;;;;;;6.35;5.75;;;;;;;30.49;46.02;97238.38;4993726;28;20035;-88
2023/08/19 09:27:29;;;;;;;5.57;5.07;;;;;;;30.52;46.72;97242.97;4972474;28;20037;-89
2023/08/19 09:29:54;;;;;;;5.65;4.38;;;;;;;30.48;47.11;97255.63;4960448;28;20508;-86
2023/08/19 09:32:28;;;;;;;4.93;4.53;;;;;;;30.55;46.98;97255.66;4967430;28;20034;-87
2023/08/19 09:35:08;;;;;;;5.20;4.67;;;;;;;30.55;47.62;97258.34;4991826;28;20204;-87
2023/08/19 09:37:34;;;;;;;5.72;5.05;;;;;;;30.40;48.05;97250.22;4989153;28;20042;-87
2023/08/19 09:40:00;;;;;;;6.20;5.60;;;;;;;30.41;47.21;97245.59;4955198;28;20069;-86
2023/08/19 09:42:28;;;;;;;5.45;5.05;;;;;;;30.44;47.48;97261.75;4969474;28;20073;-87
2023/08/19 09:44:54;;;;;;;5.60;5.10;;;;;;;30.33;48.26;97260.88;4966990;28;20038;-85
2023/08/19 09:47:19;;;;;;;6.18;5.68;;;;;;;30.36;48.16;97262.84;4989727;28;20072;-86
2023/08/19 09:49:51;;;;;;;7.95;5.65;;;;;;;30.39;47.86;97253.28;4984191;28;20065;-85
2023/08/19 09:52:19;;;;;;;5.90;5.30;;;;;;;30.35;48.73;97255.13;4980587;28;20052;-85
2023/08/19 09:54:52;;;;;;;5.53;5.03;;;;;;;30.39;47.84;97251.34;4961085;28;20482;-86
2023/08/19 09:57:18;;;;;;;5.68;5.18;;;;;;;30.45;46.45;97254.44;4971110;28;20030;-87
2023/08/19 09:59:43;;;;;;;5.10;4.70;;;;;;;30.40;47.39;97257.47;4977201;28;20042;-86
2023/08/19 10:02:11;;;;;;;5.90;5.32;;;;;;;30.46;48.70;97253.31;4986622;28;20046;-86
2023/08/19 10:04:36;;;;;;;5.50;4.90;;;;;;;30.51;48.40;97255.66;4955146;28;20041;-86
2023/08/19 10:07:04;;;;;;;6.97;6.10;;;;;;;30.65;49.21;97270.34;4958732;28;20039;-85
2023/08/19 10:09:30;;;;;;;6.88;5.18;;;;;;;30.66;48.07;97275.34;4967232;28;20034;-85
2023/08/19 10:11:57;;;;;;;5.60;5.13;;;;;;;30.82;48.16;97266.97;4973924;28;20042;-85
2023/08/19 10:14:32;;;;;;;5.22;4.80;;;;;;;30.96;47.08;97271.66;4998183;28;20061;-86
2023/08/19 10:17:05;;;;;;;6.47;5.65;;;;;;;30.98;48.89;97274.75;4990413;28;20093;-85
2023/08/19 10:19:37;;;;;;;5.65;5.25;;;;;;;30.94;47.02;97282.03;4974006;28;20393;-85
2023/08/19 10:22:03;;;;;;;5.65;5.10;;;;;;;30.96;45.99;97282.44;4972793;28;20034;-86
2023/08/19 10:24:29;;;;;;;5.85;5.15;;;;;;;31.07;46.11;97285.94;4991333;28;20149;-87
2023/08/19 10:26:55;;;;;;;5.70;5.20;;;;;;;31.23;45.21;97287.56;4959106;28;20058;-78
2023/08/19 10:29:20;;;;;;;5.93;4.82;;;;;;;31.46;47.16;97292.63;4990945;28;20436;-78
2023/08/19 10:31:46;;;;;;;6.03;5.47;;;;;;;31.41;44.90;97288.41;5005328;28;20117;-79
2023/08/19 10:34:24;;;;;;;6.38;4.93;;;;;;;31.51;46.29;97294.97;4979423;28;20348;-78
2023/08/19 10:37:06;;;;;;;5.60;5.10;;;;;;;31.64;45.36;97292.72;4980085;28;20077;-80
2023/08/19 10:39:32;;;;;;;6.97;5.55;;;;;;;31.52;46.90;97299.97;4981495;28;20030;-79
2023/08/19 10:41:57;;;;;;;5.35;4.93;;;;;;;31.39;46.18;97298.00;4971416;28;20093;-81
2023/08/19 10:44:31;;;;;;;5.75;5.25;;;;;;;31.36;46.80;97302.97;4990637;28;20064;-78
2023/08/19 10:47:08;;;;;;;6.20;5.57;;;;;;;31.29;46.81;97294.09;4992044;28;20497;-80
2023/08/19 10:49:34;;;;;;;5.63;5.10;;;;;;;31.25;47.13;97312.16;4981599;28;20026;-79
2023/08/19 10:52:05;;;;;;;6.50;5.68;;;;;;;31.15;47.57;97309.06;4980961;28;20030;-78
2023/08/19 10:54:43;;;;;;;5.50;5.03;;;;;;;31.08;47.17;97308.22;4988456;28;20034;-79
2023/08/19 10:57:15;;;;;;;6.78;6.18;;;;;;;30.94;48.59;97319.69;4965447;28;20446;-79
2023/08/19 10:59:49;;;;;;;6.38;5.75;;;;;;;30.79;46.76;97319.59;4995819;28;20552;-79
2023/08/19 11:02:14;;;;;;;5.90;5.40;;;;;;;30.74;46.38;97311.06;4979267;28;20121;-80
2023/08/19 11:04:46;;;;;;;5.97;5.38;;;;;;;30.73;46.61;97313.00;4963870;28;20568;-79
2023/08/19 11:07:12;;;;;;;5.88;5.28;;;;;;;30.74;47.28;97324.50;4955754;28;20050;-78
2023/08/19 11:09:43;;;;;;;6.53;5.55;;;;;;;30.74;47.70;97325.31;4983352;28;20038;-82
2023/08/19 11:12:09;;;;;;;6.43;5.82;;;;;;;30.58;50.04;97316.75;4983463;28;20482;-79
2023/08/19 11:14:36;;;;;;;7.35;6.05;;;;;;;30.54;49.84;97315.94;5002566;28;20038;-78
2023/08/19 11:17:02;;;;;;;6.05;5.45;;;;;;;30.51;50.29;97319.38;4986071;28;20379;-81
2023/08/19 11:19:30;;;;;;;7.13;6.35;;;;;;;30.53;51.09;97319.78;4999306;28;20038;-80
2023/08/19 11:21:56;;;;;;;5.95;5.45;;;;;;;30.56;50.31;97322.47;4984769;28;20030;-82
2023/08/19 11:24:32;;;;;;;6.10;5.60;;;;;;;30.62;50.41;97326.38;4999002;28;20049;-79
2023/08/19 11:26:57;;;;;;;6.97;6.13;;;;;;;30.52;49.82;97337.03;4983823;28;20396;-79
2023/08/19 11:29:22;;;;;;;5.90;5.40;;;;;;;30.53;49.42;97339.34;4981028;28;20031;-79
2023/08/19 11:31:48;;;;;;;6.07;5.47;;;;;;;30.60;49.34;97334.03;4978659;28;20521;-78
2023/08/19 11:34:13;;;;;;;6.13;5.60;;;;;;;30.58;49.75;97340.94;4998073;28;20038;-78
2023/08/19 11:36:40;;;;;;;5.85;5.40;;;;;;;30.65;48.63;97324.09;4985689;28;20041;-79
2023/08/19 11:39:06;;;;;;;7.35;6.28;;;;;;;30.73;48.38;97334.50;4999039;28;20038;-80
2023/08/19 11:41:32;;;;;;;6.35;5.85;;;;;;;30.83;48.68;97334.94;4964720;28;20031;-78
2023/08/19 11:43:58;;;;;;;6.72;5.88;;;;;;;30.88;48.46;97338.06;4985714;28;20118;-80
2023/08/19 11:46:28;;;;;;;6.00;5.60;;;;;;;30.94;49.10;97336.59;4987062;28;20042;-79
2023/08/19 11:48:53;;;;;;;7.15;5.55;;;;;;;30.87;49.73;97339.19;4984214;28;20153;-78
2023/08/19 11:51:20;;;;;;;6.75;5.78;;;;;;;30.94;49.63;97341.19;4973699;28;20117;-77
2023/08/19 11:53:48;;;;;;;6.97;6.38;;;;;;;30.96;50.24;97338.91;4997299;28;20453;-81
2023/08/19 11:56:13;;;;;;;7.18;5.72;;;;;;;31.05;50.65;97343.94;4988252;28;20457;-79
2023/08/19 11:58:39;;;;;;;5.85;5.45;;;;;;;31.27;49.38;97337.53;4988132;28;20089;-80
2023/08/19 12:01:04;;;;;;;8.40;5.78;;;;;;;31.28;48.36;97333.69;5003250;28;20049;-79
2023/08/19 12:03:30;;;;;;;6.60;6.00;;;;;;;31.31;48.37;97318.72;4967941;28;20624;-79
2023/08/19 12:05:56;;;;;;;6.47;5.90;;;;;;;31.54;49.48;97338.03;4984886;28;20041;-79
2023/08/19 12:08:32;;;;;;;6.93;6.32;;;;;;;31.77;48.72;97353.09;4994654;28;20631;-79
2023/08/19 12:10:58;;;;;;;6.65;6.15;;;;;;;31.81;48.94;97348.53;4994963;28;20371;-79
2023/08/19 12:13:24;;;;;;;6.90;6.30;;;;;;;31.83;48.86;97362.38;4983296;28;20037;-79
2023/08/19 12:15:50;;;;;;;6.40;5.90;;;;;;;32.00;45.82;97362.81;4976868;28;20072;-79